TimeEDT,TemperatureF,Dew PointF,Humidity,Sea Level PressureIn,VisibilityMPH,Wind Direction,Wind SpeedMPH,Gust SpeedMPH,PrecipitationIn,Events,Conditions,WindDirDegrees,DateUTC
12:14 AM,41.0,37.4,87,29.99,10.0,NNW,11.5,18.4,N/A,Rain,Light Rain,330,2011-10-01 04:14:00
12:34 AM,41.0,37.4,87,29.99,10.0,NNW,12.7,20.7,N/A,Rain,Light Rain,340,2011-10-01 04:34:00
12:54 AM,41.0,37.4,87,29.99,10.0,NNW,9.2,19.6,N/A,Rain,Light Rain,330,2011-10-01 04:54:00
1:14 AM,41.0,37.4,87,29.99,10.0,NNW,11.5,21.9,N/A,Rain,Light Rain,330,2011-10-01 05:14:00
1:35 AM,41.0,37.4,87,29.98,10.0,NW,15.0,20.7,N/A,,Overcast,320,2011-10-01 05:35:00
1:54 AM,41.0,37.4,87,29.98,10.0,NNW,16.1,19.6,N/A,,Overcast,330,2011-10-01 05:54:00
2:14 AM,41.0,35.6,81,29.98,10.0,NNW,12.7,20.7,N/A,,Overcast,340,2011-10-01 06:14:00
2:35 AM,41.0,37.4,87,29.99,10.0,NNW,11.5,19.6,N/A,,Light Drizzle,340,2011-10-01 06:35:00
2:54 AM,41.0,37.4,87,29.99,10.0,NNW,11.5,21.9,N/A,,Overcast,340,2011-10-01 06:54:00
3:14 AM,41.0,37.4,87,29.99,10.0,NNW,13.8,21.9,N/A,,Overcast,340,2011-10-01 07:14:00
3:34 AM,41.0,37.4,87,29.99,10.0,NNW,12.7,23.0,N/A,,Overcast,340,2011-10-01 07:34:00
3:54 AM,41.0,37.4,87,30.00,10.0,NNW,13.8,18.4,N/A,,Overcast,340,2011-10-01 07:54:00
4:14 AM,41.0,37.4,87,30.00,10.0,North,8.1,20.7,N/A,,Overcast,350,2011-10-01 08:14:00
4:34 AM,41.0,37.4,87,30.02,4.0,NNW,11.5,25.3,N/A,Rain,Light Rain,340,2011-10-01 08:34:00
4:54 AM,41.0,37.4,87,30.02,4.0,North,12.7,18.4,N/A,,Light Drizzle,350,2011-10-01 08:54:00
5:14 AM,41.0,37.4,87,30.03,3.0,NNW,12.7,21.9,N/A,,Overcast,340,2011-10-01 09:14:00
5:34 AM,41.0,37.4,87,30.04,4.0,North,11.5,18.4,N/A,,Overcast,350,2011-10-01 09:34:00
5:54 AM,41.0,37.4,87,30.04,4.0,NNW,12.7,21.9,N/A,,Overcast,340,2011-10-01 09:54:00
6:13 AM,41.0,37.4,87,30.05,10.0,NNW,11.5,20.7,N/A,,Overcast,340,2011-10-01 10:13:00
6:34 AM,41.0,37.4,87,30.05,5.0,NNW,10.4,20.7,N/A,,Overcast,340,2011-10-01 10:34:00
6:54 AM,41.0,37.4,87,30.06,10.0,NNW,13.8,19.6,N/A,,Overcast,340,2011-10-01 10:54:00
7:14 AM,41.0,37.4,87,30.07,10.0,NNW,15.0,24.2,N/A,,Overcast,340,2011-10-01 11:14:00
7:34 AM,41.0,37.4,87,30.08,10.0,NNW,10.4,18.4,N/A,,Overcast,340,2011-10-01 11:34:00
7:55 AM,41.0,37.4,87,30.09,7.0,NNW,11.5,19.6,N/A,,Overcast,340,2011-10-01 11:55:00
8:14 AM,41.0,37.4,87,30.10,10.0,NNW,11.5,18.4,N/A,,Overcast,340,2011-10-01 12:14:00
8:34 AM,41.0,37.4,87,30.11,10.0,NNW,10.4,19.6,N/A,,Overcast,340,2011-10-01 12:34:00
8:54 AM,41.0,37.4,87,30.12,10.0,NNW,10.4,17.3,N/A,,Overcast,330,2011-10-01 12:54:00
9:14 AM,41.0,37.4,87,30.13,10.0,NNW,10.4,-,N/A,,Overcast,340,2011-10-01 13:14:00
9:34 AM,42.8,37.4,81,30.14,10.0,North,11.5,17.3,N/A,,Overcast,350,2011-10-01 13:34:00
10:14 AM,44.6,37.4,76,30.14,10.0,North,8.1,19.6,N/A,,Overcast,350,2011-10-01 14:14:00
10:34 AM,44.6,37.4,76,30.14,10.0,North,8.1,17.3,N/A,,Overcast,360,2011-10-01 14:34:00
10:54 AM,44.6,37.4,76,30.15,10.0,North,8.1,19.6,N/A,,Overcast,360,2011-10-01 14:54:00
11:14 AM,44.6,37.4,76,30.16,10.0,North,11.5,18.4,N/A,,Overcast,360,2011-10-01 15:14:00
11:34 AM,46.4,35.6,66,30.17,10.0,NNE,11.5,23.0,N/A,,Overcast,30,2011-10-01 15:34:00
11:54 AM,46.4,35.6,66,30.17,10.0,North,9.2,19.6,N/A,,Overcast,360,2011-10-01 15:54:00
12:14 PM,46.4,35.6,66,30.17,10.0,NNE,15.0,20.7,N/A,,Overcast,20,2011-10-01 16:14:00
12:35 PM,48.2,35.6,62,30.17,10.0,North,15.0,26.5,N/A,,Overcast,350,2011-10-01 16:35:00
12:54 PM,48.2,33.8,58,30.17,10.0,NNE,10.4,23.0,N/A,,Mostly Cloudy,20,2011-10-01 16:54:00
1:14 PM,50.0,35.6,58,30.17,10.0,North,13.8,20.7,N/A,,Mostly Cloudy,10,2011-10-01 17:14:00
1:34 PM,48.2,35.6,62,30.17,10.0,North,11.5,23.0,N/A,,Mostly Cloudy,360,2011-10-01 17:34:00
2:14 PM,50.0,35.6,58,30.16,10.0,North,15.0,21.9,N/A,,Overcast,360,2011-10-01 18:14:00
2:34 PM,50.0,35.6,58,30.16,10.0,North,12.7,20.7,N/A,,Mostly Cloudy,360,2011-10-01 18:34:00
3:14 PM,50.0,35.6,58,30.17,10.0,North,11.5,19.6,N/A,,Mostly Cloudy,350,2011-10-01 19:14:00
3:34 PM,50.0,35.6,58,30.17,10.0,North,13.8,23.0,N/A,,Mostly Cloudy,350,2011-10-01 19:34:00
3:54 PM,50.0,33.8,54,30.17,10.0,North,11.5,23.0,N/A,,Mostly Cloudy,350,2011-10-01 19:54:00
4:14 PM,48.2,35.6,62,30.18,10.0,North,13.8,20.7,N/A,,Mostly Cloudy,350,2011-10-01 20:14:00
4:34 PM,50.0,33.8,54,30.18,10.0,North,6.9,18.4,N/A,,Mostly Cloudy,360,2011-10-01 20:34:00
4:54 PM,50.0,35.6,58,30.18,10.0,NNW,11.5,19.6,N/A,,Mostly Cloudy,340,2011-10-01 20:54:00
5:14 PM,50.0,33.8,54,30.18,10.0,North,6.9,-,N/A,,Scattered Clouds,360,2011-10-01 21:14:00
5:34 PM,50.0,32.0,50,30.18,10.0,North,6.9,18.4,N/A,,Scattered Clouds,10,2011-10-01 21:34:00
5:54 PM,50.0,32.0,50,30.18,10.0,NNE,8.1,-,N/A,,Clear,20,2011-10-01 21:54:00
6:14 PM,50.0,33.8,54,30.18,10.0,North,4.6,-,N/A,,Clear,350,2011-10-01 22:14:00
6:34 PM,48.2,33.8,58,30.18,10.0,North,4.6,-,N/A,,Clear,10,2011-10-01 22:34:00
6:55 PM,48.2,33.8,58,30.18,10.0,North,3.5,-,N/A,,Clear,360,2011-10-01 22:55:00
7:14 PM,46.4,33.8,62,30.18,10.0,Calm,Calm,-,N/A,,Clear,0,2011-10-01 23:14:00
7:34 PM,46.4,33.8,62,30.18,10.0,Calm,Calm,-,N/A,,Clear,0,2011-10-01 23:34:00
8:14 PM,44.6,35.6,71,30.18,10.0,Calm,Calm,-,N/A,,Clear,0,2011-10-02 00:14:00
8:34 PM,44.6,35.6,71,30.19,10.0,North,3.5,-,N/A,,Clear,10,2011-10-02 00:34:00
8:54 PM,42.8,35.6,76,30.19,10.0,Calm,Calm,-,N/A,,Clear,0,2011-10-02 00:54:00
9:14 PM,42.8,35.6,76,30.20,10.0,Calm,Calm,-,N/A,,Clear,0,2011-10-02 01:14:00
9:34 PM,42.8,35.6,76,30.20,10.0,Calm,Calm,-,N/A,,Clear,0,2011-10-02 01:34:00
9:54 PM,42.8,35.6,76,30.19,10.0,Calm,Calm,-,N/A,,Clear,0,2011-10-02 01:54:00
10:14 PM,41.0,35.6,81,30.19,10.0,Calm,Calm,-,N/A,,Clear,0,2011-10-02 02:14:00
10:34 PM,41.0,35.6,81,30.20,10.0,Calm,Calm,-,N/A,,Clear,0,2011-10-02 02:34:00
10:54 PM,41.0,35.6,81,30.20,10.0,Calm,Calm,-,N/A,,Clear,0,2011-10-02 02:54:00
11:14 PM,41.0,35.6,81,30.20,10.0,Calm,Calm,-,N/A,,Clear,0,2011-10-02 03:14:00
11:35 PM,41.0,35.6,81,30.20,10.0,Calm,Calm,-,N/A,,Clear,0,2011-10-02 03:35:00
11:54 PM,41.0,35.6,81,30.20,10.0,Calm,Calm,-,N/A,,Clear,0,2011-10-02 03:54:00